KSRB  Upper Cumberland Regional  Airport

Sparta, Tennessee, United States

Add Bookmark
Status Useage
Operational Public
Latitude Longitude
36° 3' 24" N 85° 31' 48" W
36.056739 -85.530108
Local (DST -5) UTC (GMT -6)
Mar 4, 2015 10:02 Mar 5, 2015 04:02
Sunrise-Sunset Local UTC
Begin Civil Twilight 05:40 11:40
Sunrise 06:05 12:05
Sunset 05:41 23:41
End Civil Twilight 06:07 00:07

Current Weather

METAR Observed IFR
KSRB 050355Z AUTO 03009KT 10SM OVC008 01/01 A3003 Thu, Mar 5, 2015 @ 03:55 UTC
(7 Minutes ago)
Instrument Flight Rules
Wind Visibility Clouds Conditions
030° at 9 knots (10 mph) 10 statute miles
  • Overcast at 800' AGL
  • No significant weather
Temperatures Readings Precipitation
Current Temp 1°C (34°F)
Dewpoint 1°C (34°F)
Humidity 100%
Altimeter 30.03"Hg
Sea Level Pressure 1017mb
None Recorded

Additional weather within a 50nm radius of KSRB

Map ICAO Location
KCSV 22.5nm E (106°)
KRNC 26.3nm S (215°)
KMQY 48.1nm W (267°)

24 Hour Weather History

Loading
-

24 Hour Weather Graphs

Loading
-

CheckWX.com is intended as a tool to help pilots better visualize weather data. It is not intended as a substitute for an official weather briefing obtained from a Flight Service Station. CheckWX.com does not meet the FAA requirements for an official pre-flight weather briefing. Therefore, it's important that pilots still call and obtain an official FSS pre-flight weather briefing.